createdAt,value
2018-03-26T00:00:50.651Z,26.27
2018-03-26T00:03:18.918Z,26.57
2018-03-26T00:05:47.254Z,27.40
2018-03-26T00:08:15.543Z,28.83
2018-03-26T00:10:44.082Z,25.40
2018-03-26T00:13:12.684Z,29.67
2018-03-26T00:15:41.095Z,31.37
2018-03-26T00:18:10.229Z,27.93
2018-03-26T00:20:38.690Z,27.97
2018-03-26T00:23:06.995Z,25.40
2018-03-26T00:25:35.395Z,31.37
2018-03-26T00:28:04.083Z,28.70
2018-03-26T00:30:32.487Z,29.80
2018-03-26T00:33:00.910Z,28.97
2018-03-26T00:35:29.185Z,31.97
2018-03-26T00:37:57.739Z,31.87
2018-03-26T00:40:26.919Z,38.00
2018-03-26T00:42:55.974Z,37.97
2018-03-26T00:45:24.289Z,40.40
2018-03-26T00:47:53.355Z,40.53
2018-03-26T00:50:21.800Z,42.00
2018-03-26T00:52:50.140Z,37.20
2018-03-26T00:55:20.570Z,39.27
2018-03-26T00:57:48.972Z,32.23
2018-03-26T01:00:17.414Z,42.23
2018-03-26T01:02:45.992Z,40.80
2018-03-26T01:05:14.576Z,42.17
2018-03-26T01:07:42.998Z,41.15
2018-03-26T01:10:11.276Z,39.60
2018-03-26T01:12:39.579Z,46.03
2018-03-26T01:15:07.954Z,39.13
2018-03-26T01:17:36.274Z,37.40
2018-03-26T01:20:04.772Z,43.40
2018-03-26T01:22:33.982Z,46.50
2018-03-26T01:25:03.187Z,35.45
2018-03-26T01:27:31.699Z,43.73
2018-03-26T01:30:00.079Z,41.53
2018-03-26T01:32:28.330Z,48.93
2018-03-26T01:34:56.682Z,38.73
2018-03-26T01:37:25.771Z,41.27
2018-03-26T01:39:54.954Z,38.38
2018-03-26T01:42:23.255Z,42.00
2018-03-26T01:44:52.345Z,41.50
2018-03-26T01:47:21.598Z,42.60
2018-03-26T01:49:50.015Z,39.70
2018-03-26T01:52:18.329Z,42.03
2018-03-26T01:54:46.750Z,38.93
2018-03-26T01:57:15.202Z,48.20
2018-03-26T01:59:43.716Z,50.07
2018-03-26T02:02:12.980Z,50.20
2018-03-26T02:04:41.275Z,45.90
2018-03-26T02:07:09.537Z,45.12
2018-03-26T02:09:37.909Z,42.40
2018-03-26T02:12:06.192Z,48.58
2018-03-26T02:14:34.502Z,44.93
2018-03-26T02:17:02.847Z,45.00
2018-03-26T02:19:31.311Z,47.74
2018-03-26T02:21:59.911Z,39.70
2018-03-26T02:24:28.335Z,44.83
2018-03-26T02:26:56.702Z,39.43
2018-03-26T02:29:24.996Z,37.57
2018-03-26T02:31:54.019Z,33.60
2018-03-26T02:34:22.352Z,40.28
2018-03-26T02:36:50.638Z,32.07
2018-03-26T02:39:19.832Z,38.75
2018-03-26T02:41:48.152Z,36.63
2018-03-26T02:44:16.736Z,38.13
2018-03-26T02:46:45.336Z,35.65
2018-03-26T02:49:13.748Z,42.03
2018-03-26T02:51:43.180Z,34.73
2018-03-26T02:54:12.255Z,34.07
2018-03-26T02:56:40.547Z,29.37
2018-03-26T02:59:08.862Z,29.67
2018-03-26T03:01:37.396Z,28.10
2018-03-26T03:04:06.806Z,27.07
2018-03-26T03:06:35.288Z,32.20
2018-03-26T03:09:04.660Z,31.87
2018-03-26T03:11:33.030Z,31.10
2018-03-26T03:14:01.546Z,29.27
2018-03-26T03:16:30.137Z,35.50
2018-03-26T03:18:58.524Z,28.67
2018-03-26T03:21:26.806Z,31.23
2018-03-26T03:23:56.229Z,35.53
2018-03-26T03:26:24.929Z,28.03
2018-03-26T03:28:54.222Z,36.40
2018-03-26T03:31:22.518Z,31.20
2018-03-26T03:33:50.921Z,29.70
2018-03-26T03:36:20.092Z,28.97
2018-03-26T03:38:48.418Z,31.33
2018-03-26T03:41:16.755Z,29.03
2018-03-26T03:43:45.137Z,25.43
2018-03-26T03:46:13.675Z,27.40
2018-03-26T03:48:42.171Z,24.80
2018-03-26T03:51:10.497Z,28.03
2018-03-26T03:53:39.280Z,27.87
2018-03-26T03:56:08.475Z,26.23
2018-03-26T03:58:37.791Z,26.27
2018-03-26T04:01:06.301Z,29.25
2018-03-26T04:03:34.585Z,25.70
2018-03-26T04:06:02.853Z,27.45
2018-03-26T04:08:31.386Z,28.50
2018-03-26T04:11:00.480Z,29.47
2018-03-26T04:13:29.086Z,31.17
2018-03-26T04:15:57.386Z,32.28
2018-03-26T04:18:25.970Z,25.83
2018-03-26T04:20:54.341Z,31.23
2018-03-26T04:23:22.758Z,26.73
2018-03-26T04:25:51.145Z,26.50
2018-03-26T04:28:19.645Z,28.80
2018-03-26T04:30:48.895Z,25.70
2018-03-26T04:33:17.505Z,32.00
2018-03-26T04:35:45.826Z,31.33
2018-03-26T04:38:14.187Z,24.08
2018-03-26T04:40:43.385Z,25.20
2018-03-26T04:43:12.437Z,30.73
2018-03-26T04:45:40.747Z,31.47
2018-03-26T04:48:09.137Z,26.23
2018-03-26T04:50:38.283Z,35.05
2018-03-26T04:53:06.572Z,37.93
2018-03-26T04:55:34.910Z,34.33
2018-03-26T04:58:03.207Z,25.17
2018-03-26T05:00:31.958Z,32.13
2018-03-26T05:03:01.175Z,31.67
2018-03-26T05:05:29.716Z,30.08
2018-03-26T05:07:58.120Z,26.93
2018-03-26T05:10:27.217Z,28.77
2018-03-26T05:12:55.561Z,33.53
2018-03-26T05:15:25.432Z,28.67
2018-03-26T05:17:53.746Z,26.83
2018-03-26T05:20:22.155Z,31.80
2018-03-26T05:22:52.048Z,26.90
2018-03-26T05:25:20.366Z,31.03
2018-03-26T05:27:48.677Z,27.33
2018-03-26T05:30:16.962Z,31.20
2018-03-26T05:32:45.307Z,26.17
2018-03-26T05:35:13.741Z,29.70
2018-03-26T05:37:42.143Z,25.10
2018-03-26T05:40:10.446Z,25.73
2018-03-26T05:42:38.726Z,27.97
2018-03-26T05:45:07.243Z,33.80
2018-03-26T05:47:35.512Z,27.67
2018-03-26T05:50:04.676Z,31.60
2018-03-26T05:52:34.227Z,32.30
2018-03-26T05:55:02.571Z,32.53
2018-03-26T05:57:31.095Z,30.77
2018-03-26T06:00:00.138Z,35.17
2018-03-26T06:02:28.522Z,30.30
2018-03-26T06:04:57.101Z,30.40
2018-03-26T06:07:25.527Z,29.93
2018-03-26T06:09:54.693Z,32.47
2018-03-26T06:12:23.063Z,28.87
2018-03-26T06:14:51.400Z,27.67
2018-03-26T06:17:20.607Z,33.00
2018-03-26T06:19:48.856Z,25.83
2018-03-26T06:22:18.031Z,28.87
2018-03-26T06:24:46.452Z,29.48
2018-03-26T06:27:14.869Z,28.25
2018-03-26T06:29:43.445Z,34.60
2018-03-26T06:32:11.952Z,32.08
2018-03-26T06:34:40.375Z,30.20
2018-03-26T06:37:14.326Z,34.67
2018-03-26T06:39:42.785Z,29.20
2018-03-26T06:42:11.218Z,31.00
2018-03-26T06:44:39.751Z,29.57
2018-03-26T06:47:08.235Z,34.17
2018-03-26T06:49:36.671Z,32.00
2018-03-26T06:52:05.778Z,28.55
2018-03-26T06:54:34.082Z,26.58
2018-03-26T06:57:02.592Z,27.62
2018-03-26T06:59:31.163Z,31.07
2018-03-26T07:01:59.571Z,26.48
2018-03-26T07:04:27.878Z,28.27
2018-03-26T07:06:57.190Z,29.73
2018-03-26T07:09:25.891Z,30.73
2018-03-26T07:11:55.282Z,28.35
2018-03-26T07:14:23.722Z,22.77
2018-03-26T07:16:52.825Z,27.33
2018-03-26T07:19:21.954Z,26.47
2018-03-26T07:21:50.521Z,22.80
2018-03-26T07:24:18.825Z,25.45
2018-03-26T07:26:47.123Z,23.60
2018-03-26T07:29:15.443Z,19.63
2018-03-26T07:31:44.558Z,24.67
2018-03-26T07:34:13.032Z,23.13
2018-03-26T07:36:41.337Z,21.87
2018-03-26T07:39:10.956Z,23.33
2018-03-26T07:41:39.256Z,19.80
2018-03-26T07:44:08.484Z,17.37
2018-03-26T07:46:36.818Z,19.50
2018-03-26T07:49:05.664Z,22.00
2018-03-26T07:51:34.397Z,18.73
2018-03-26T07:54:02.724Z,17.40
2018-03-26T07:56:31.163Z,17.43
2018-03-26T07:58:59.464Z,13.93
2018-03-26T08:01:29.033Z,16.40
2018-03-26T08:03:57.407Z,14.73
2018-03-26T08:06:25.839Z,15.67
2018-03-26T08:08:54.184Z,13.13
2018-03-26T08:11:24.444Z,16.23
2018-03-26T08:13:53.218Z,15.00
2018-03-26T08:16:22.637Z,15.10
2018-03-26T08:18:50.989Z,15.93
2018-03-26T08:21:20.207Z,15.20
2018-03-26T08:23:48.735Z,13.93
2018-03-26T08:26:17.318Z,15.00
2018-03-26T08:28:45.836Z,15.37
2018-03-26T08:31:15.093Z,25.90
2018-03-26T08:33:43.413Z,30.20
2018-03-26T08:36:11.742Z,15.70
2018-03-26T08:38:40.208Z,15.37
2018-03-26T08:41:08.503Z,15.03
2018-03-26T08:43:38.194Z,19.80
2018-03-26T08:46:06.496Z,22.67
2018-03-26T08:48:34.818Z,23.87
2018-03-26T08:51:03.292Z,23.73
2018-03-26T08:53:32.586Z,20.57
2018-03-26T08:56:01.303Z,22.30
2018-03-26T08:58:29.925Z,18.37
2018-03-26T09:00:58.578Z,21.60
2018-03-26T09:03:26.962Z,24.30
2018-03-26T09:05:55.328Z,18.58
2018-03-26T09:08:23.666Z,14.90
2018-03-26T09:10:52.895Z,14.80
2018-03-26T09:13:21.202Z,13.30
2018-03-26T09:15:49.712Z,17.77
2018-03-26T09:18:18.324Z,17.87
2018-03-26T09:20:46.788Z,16.63
2018-03-26T09:23:16.100Z,17.83
2018-03-26T09:25:45.144Z,13.90
2018-03-26T09:28:13.467Z,13.43
2018-03-26T09:30:42.576Z,13.13
2018-03-26T09:33:10.981Z,12.33
2018-03-26T09:35:39.544Z,11.98
2018-03-26T09:38:08.181Z,10.82
2018-03-26T09:40:36.550Z,9.43
2018-03-26T09:43:05.692Z,10.10
2018-03-26T09:45:34.046Z,9.50
2018-03-26T09:48:03.177Z,9.03
2018-03-26T09:50:31.482Z,9.47
2018-03-26T09:52:59.845Z,8.83
2018-03-26T09:55:28.123Z,8.13
2018-03-26T09:57:56.478Z,8.27
2018-03-26T10:00:30.513Z,8.32
2018-03-26T10:02:58.864Z,7.80
2018-03-26T10:05:27.322Z,8.43
2018-03-26T10:07:56.434Z,7.53
2018-03-26T10:10:25.678Z,6.53
2018-03-26T10:12:54.348Z,6.03
2018-03-26T10:15:22.748Z,5.10
2018-03-26T10:17:51.102Z,5.47
2018-03-26T10:20:19.558Z,6.57
2018-03-26T10:22:48.200Z,7.27
2018-03-26T10:25:16.677Z,8.00
2018-03-26T10:27:45.958Z,7.20
2018-03-26T10:30:14.252Z,7.73
2018-03-26T10:32:42.607Z,8.18
2018-03-26T10:35:11.050Z,7.53
2018-03-26T10:37:40.352Z,7.60
2018-03-26T10:40:09.509Z,7.23
2018-03-26T10:42:38.112Z,7.67
2018-03-26T10:45:06.503Z,7.90
2018-03-26T10:47:35.704Z,5.90
2018-03-26T10:50:04.840Z,5.37
2018-03-26T10:52:33.144Z,5.00
2018-03-26T10:55:01.545Z,3.80
2018-03-26T10:57:30.678Z,4.30
2018-03-26T10:59:59.024Z,3.78
2018-03-26T11:02:28.254Z,3.93
2018-03-26T11:04:56.627Z,3.45
2018-03-26T11:07:25.105Z,3.57
2018-03-26T11:09:53.730Z,2.50
2018-03-26T11:12:22.307Z,3.07
2018-03-26T11:14:50.650Z,2.67
2018-03-26T11:17:19.077Z,2.62
2018-03-26T11:19:47.559Z,2.60
2018-03-26T11:22:17.570Z,2.20
2018-03-26T11:24:46.153Z,2.50
2018-03-26T11:27:14.514Z,2.40
2018-03-26T11:29:42.867Z,2.43
2018-03-26T11:32:11.204Z,3.60
2018-03-26T11:34:39.660Z,3.15
2018-03-26T11:37:08.282Z,3.00
2018-03-26T11:39:37.553Z,2.07
2018-03-26T11:42:06.110Z,1.75
2018-03-26T11:44:34.568Z,1.95
2018-03-26T11:47:03.133Z,3.25
2018-03-26T11:49:32.685Z,3.20
2018-03-26T11:52:01.023Z,3.10
2018-03-26T11:54:29.311Z,3.50
2018-03-26T11:56:57.793Z,3.00
2018-03-26T11:59:26.197Z,3.60
2018-03-26T12:01:54.839Z,2.80
2018-03-26T12:04:23.960Z,3.00
2018-03-26T12:06:52.426Z,2.80
2018-03-26T12:09:20.798Z,2.30
2018-03-26T12:11:49.337Z,2.80
2018-03-26T12:14:18.669Z,2.83
2018-03-26T12:16:47.043Z,2.40
2018-03-26T12:19:16.163Z,2.50
2018-03-26T12:21:44.691Z,2.43
2018-03-26T12:24:31.234Z,2.90
2018-03-26T12:27:00.489Z,2.97
2018-03-26T12:29:46.662Z,2.87
2018-03-26T12:32:14.979Z,2.80
2018-03-26T12:35:01.338Z,2.27
2018-03-26T12:37:30.024Z,2.80
2018-03-26T12:39:58.545Z,2.50
2018-03-26T12:42:27.950Z,2.07
2018-03-26T12:45:14.217Z,2.30
2018-03-26T12:47:42.534Z,1.43
2018-03-26T12:50:11.255Z,2.40
2018-03-26T12:52:50.317Z,2.10
2018-03-26T12:55:18.656Z,2.30
2018-03-26T12:58:04.979Z,1.93
2018-03-26T13:00:33.419Z,1.80
2018-03-26T13:03:01.841Z,2.60
2018-03-26T13:05:30.250Z,2.40
2018-03-26T13:07:58.567Z,2.17
2018-03-26T13:10:27.253Z,1.50
2018-03-26T13:12:56.655Z,2.10
2018-03-26T13:15:24.967Z,2.15
2018-03-26T13:17:53.309Z,1.90
2018-03-26T13:20:21.848Z,2.20
2018-03-26T13:22:50.249Z,1.70
2018-03-26T13:25:19.363Z,2.23
2018-03-26T13:27:47.719Z,2.23
2018-03-26T13:30:16.960Z,2.37
2018-03-26T13:32:45.509Z,2.77
2018-03-26T13:35:15.761Z,1.95
2018-03-26T13:37:44.121Z,2.10
2018-03-26T13:40:12.444Z,2.07
2018-03-26T13:42:40.803Z,2.03
2018-03-26T13:45:09.299Z,2.43
2018-03-26T13:47:37.650Z,2.10
2018-03-26T13:50:06.033Z,1.70
2018-03-26T13:52:35.599Z,1.43
2018-03-26T13:55:04.819Z,2.00
2018-03-26T13:57:33.140Z,1.80
2018-03-26T14:00:01.504Z,1.70
2018-03-26T14:02:30.046Z,2.00
2018-03-26T14:04:59.614Z,2.00
2018-03-26T14:07:28.037Z,2.20
2018-03-26T14:10:14.749Z,2.40
2018-03-26T14:13:00.948Z,2.50
2018-03-26T14:15:47.104Z,2.60
2018-03-26T14:18:15.516Z,2.80
2018-03-26T14:20:44.324Z,3.07
2018-03-26T14:23:12.650Z,2.63
2018-03-26T14:25:41.123Z,2.73
2018-03-26T14:28:11.417Z,2.87
2018-03-26T14:30:39.779Z,2.27
2018-03-26T14:33:08.259Z,3.53
2018-03-26T14:35:44.213Z,2.12
2018-03-26T14:38:12.716Z,1.83
2018-03-26T14:40:41.411Z,2.10
2018-03-26T14:43:10.010Z,2.00
2018-03-26T14:45:39.476Z,2.10
2018-03-26T14:48:07.957Z,1.87
2018-03-26T14:50:36.364Z,2.20
2018-03-26T14:53:04.746Z,2.20
2018-03-26T14:55:33.075Z,1.63
2018-03-26T14:58:01.499Z,1.50
2018-03-26T15:00:30.260Z,1.83
2018-03-26T15:02:58.663Z,2.30
2018-03-26T15:05:28.138Z,2.45
2018-03-26T15:07:56.692Z,1.80
2018-03-26T15:10:25.196Z,1.90
2018-03-26T15:12:53.655Z,1.90
2018-03-26T15:15:22.904Z,1.90
2018-03-26T15:17:51.245Z,1.73
2018-03-26T15:20:19.630Z,2.00
2018-03-26T15:22:48.001Z,2.12
2018-03-26T15:25:16.554Z,1.63
2018-03-26T15:27:45.707Z,2.30
2018-03-26T15:30:14.103Z,2.43
2018-03-26T15:32:42.545Z,2.30
2018-03-26T15:35:10.844Z,2.10
2018-03-26T15:37:40.704Z,2.07
2018-03-26T15:40:10.056Z,2.30
2018-03-26T15:42:38.414Z,2.40
2018-03-26T15:45:06.725Z,2.73
2018-03-26T15:47:35.043Z,2.50
2018-03-26T15:50:04.137Z,2.57
2018-03-26T15:52:33.378Z,2.33
2018-03-26T15:55:01.834Z,2.40
2018-03-26T15:57:30.176Z,2.60
2018-03-26T15:59:58.616Z,2.77
2018-03-26T16:02:32.378Z,2.33
2018-03-26T16:05:01.494Z,2.40
2018-03-26T16:07:29.906Z,2.67
2018-03-26T16:09:58.561Z,2.65
2018-03-26T16:12:27.001Z,2.10
2018-03-26T16:14:56.315Z,2.40
2018-03-26T16:17:26.611Z,2.47
2018-03-26T16:19:54.967Z,2.00
2018-03-26T16:22:23.806Z,2.40
2018-03-26T16:24:53.209Z,2.47
2018-03-26T16:27:21.618Z,2.50
2018-03-26T16:29:50.104Z,2.90
2018-03-26T16:32:18.453Z,2.67
2018-03-26T16:34:47.652Z,3.23
2018-03-26T16:37:17.196Z,2.70
2018-03-26T16:39:45.543Z,3.15
2018-03-26T16:42:26.364Z,3.07
2018-03-26T16:44:54.746Z,3.33
2018-03-26T16:47:23.777Z,3.00
2018-03-26T16:49:52.121Z,3.20
2018-03-26T16:52:20.569Z,2.93
2018-03-26T16:54:48.934Z,2.83
2018-03-26T16:57:17.323Z,3.13
2018-03-26T16:59:45.650Z,2.93
2018-03-26T17:02:14.216Z,3.60
2018-03-26T17:04:42.645Z,3.40
2018-03-26T17:07:11.076Z,2.90
2018-03-26T17:09:39.616Z,3.10
2018-03-26T17:12:08.256Z,2.93
2018-03-26T17:14:36.652Z,2.63
2018-03-26T17:17:05.791Z,2.77
2018-03-26T17:19:35.221Z,2.90
2018-03-26T17:22:03.645Z,4.10
2018-03-26T17:24:32.579Z,3.10
2018-03-26T17:27:01.001Z,2.23
2018-03-26T17:29:29.397Z,3.17
2018-03-26T17:31:57.897Z,2.37
2018-03-26T17:34:26.680Z,2.73
2018-03-26T17:36:56.432Z,2.77
2018-03-26T17:39:25.056Z,2.97
2018-03-26T17:41:53.446Z,2.60
2018-03-26T17:44:22.030Z,2.33
2018-03-26T17:46:50.753Z,2.80
2018-03-26T17:49:19.102Z,3.03
2018-03-26T17:51:48.586Z,3.37
2018-03-26T17:54:18.074Z,2.50
2018-03-26T17:56:46.556Z,2.33
2018-03-26T17:59:15.098Z,2.53
2018-03-26T18:01:44.420Z,2.33
2018-03-26T18:04:13.754Z,2.47
2018-03-26T18:06:42.303Z,2.70
2018-03-26T18:09:11.735Z,2.20
2018-03-26T18:11:40.107Z,2.10
2018-03-26T18:14:08.598Z,2.47
2018-03-26T18:16:37.156Z,2.67
2018-03-26T18:19:06.673Z,2.25
2018-03-26T18:21:35.251Z,2.10
2018-03-26T18:24:04.556Z,5.40
2018-03-26T18:26:33.170Z,4.50
2018-03-26T18:29:01.645Z,3.10
2018-03-26T18:31:30.023Z,2.20
2018-03-26T18:33:58.626Z,2.60
2018-03-26T18:36:27.111Z,3.00
2018-03-26T18:38:55.439Z,2.10
2018-03-26T18:41:24.041Z,2.42
2018-03-26T18:43:52.465Z,2.30
2018-03-26T18:46:21.108Z,2.10
2018-03-26T18:48:49.531Z,2.50
2018-03-26T18:51:17.956Z,2.50
2018-03-26T18:53:46.854Z,2.35
2018-03-26T18:56:15.214Z,2.70
2018-03-26T18:58:43.660Z,3.53
2018-03-26T19:01:12.134Z,3.73
2018-03-26T19:03:40.721Z,3.63
2018-03-26T19:06:10.674Z,2.40
2018-03-26T19:08:39.114Z,3.93
2018-03-26T19:11:07.508Z,30.60
2018-03-26T19:13:35.933Z,15.00
2018-03-26T19:16:04.614Z,5.05
2018-03-26T19:18:33.251Z,3.43
2018-03-26T19:21:01.673Z,2.58
2018-03-26T19:23:30.229Z,2.67
2018-03-26T19:25:59.757Z,2.87
2018-03-26T19:28:28.373Z,2.80
2018-03-26T19:30:56.830Z,2.78
2018-03-26T19:33:25.486Z,2.50
2018-03-26T19:35:53.861Z,2.97
2018-03-26T19:38:23.096Z,2.90
2018-03-26T19:40:51.457Z,2.90
2018-03-26T19:43:19.848Z,3.20
2018-03-26T19:45:48.530Z,3.05
2018-03-26T19:48:16.983Z,3.47
2018-03-26T19:50:46.272Z,3.28
2018-03-26T19:53:14.670Z,3.43
2018-03-26T19:55:43.848Z,4.40
2018-03-26T19:58:12.235Z,3.17
2018-03-26T20:00:40.709Z,2.83
2018-03-26T20:03:10.032Z,37.70
2018-03-26T20:05:38.592Z,50.90
2018-03-26T20:08:07.101Z,11.93
2018-03-26T20:10:35.421Z,4.50
2018-03-26T20:13:03.986Z,3.80
2018-03-26T20:15:32.572Z,3.80
2018-03-26T20:18:00.886Z,4.53
2018-03-26T20:20:29.736Z,5.33
2018-03-26T20:22:59.082Z,5.60
2018-03-26T20:25:27.502Z,4.87
2018-03-26T20:27:57.626Z,4.45
2018-03-26T20:30:26.041Z,5.43
2018-03-26T20:32:54.597Z,3.83
2018-03-26T20:35:22.964Z,3.87
2018-03-26T20:37:51.521Z,6.00
2018-03-26T20:40:20.815Z,6.13
2018-03-26T20:42:50.055Z,5.40
2018-03-26T20:45:18.377Z,5.25
2018-03-26T20:47:46.789Z,5.63
2018-03-26T20:50:15.143Z,5.80
2018-03-26T20:52:43.572Z,5.50
2018-03-26T20:55:12.099Z,5.63
2018-03-26T20:57:41.305Z,7.45
2018-03-26T21:00:10.731Z,7.27
2018-03-26T21:02:39.647Z,5.73
2018-03-26T21:05:08.112Z,5.50
2018-03-26T21:07:36.550Z,6.43
2018-03-26T21:10:04.875Z,5.90
2018-03-26T21:12:33.364Z,6.23
2018-03-26T21:17:37.512Z,6.00
2018-03-26T21:20:05.879Z,5.60
2018-03-26T21:22:34.578Z,5.93
2018-03-26T21:25:02.900Z,6.50
2018-03-26T21:27:32.107Z,5.78
2018-03-26T21:30:00.524Z,6.52
2018-03-26T21:32:29.018Z,5.50
2018-03-26T21:34:57.537Z,6.70
2018-03-26T21:37:27.937Z,5.87
2018-03-26T21:39:57.373Z,4.80
2018-03-26T21:42:25.786Z,5.50
2018-03-26T21:44:54.266Z,5.40
2018-03-26T21:47:22.966Z,6.37
2018-03-26T21:49:51.384Z,6.93
2018-03-26T21:52:20.735Z,5.43
2018-03-26T21:54:49.390Z,5.93
2018-03-26T21:57:18.030Z,6.50
2018-03-26T21:59:46.311Z,7.80
2018-03-26T22:02:14.676Z,42.57
2018-03-26T22:04:43.187Z,31.77
2018-03-26T22:07:11.698Z,11.43
2018-03-26T22:09:41.921Z,7.75
2018-03-26T22:12:10.346Z,5.90
2018-03-26T22:14:38.736Z,6.43
2018-03-26T22:17:07.148Z,6.67
2018-03-26T22:19:35.588Z,5.57
2018-03-26T22:22:04.163Z,7.10
2018-03-26T22:24:32.796Z,6.00
2018-03-26T22:27:01.083Z,7.40
2018-03-26T22:29:29.747Z,5.37
2018-03-26T22:31:59.018Z,5.95
2018-03-26T22:34:27.431Z,6.37
2018-03-26T22:36:56.557Z,7.07
2018-03-26T22:39:25.027Z,6.80
2018-03-26T22:41:55.211Z,6.40
2018-03-26T22:44:25.440Z,7.30
2018-03-26T22:46:53.991Z,7.17
2018-03-26T22:49:22.246Z,8.73
2018-03-26T22:51:50.641Z,8.13
2018-03-26T22:54:19.064Z,7.35
2018-03-26T22:56:47.360Z,6.80
2018-03-26T22:59:15.734Z,7.80
2018-03-26T23:01:44.088Z,8.30
2018-03-26T23:04:13.273Z,6.45
2018-03-26T23:06:41.554Z,6.43
2018-03-26T23:09:10.672Z,6.13
2018-03-26T23:11:40.848Z,9.43
2018-03-26T23:14:09.223Z,7.67
2018-03-26T23:16:37.518Z,7.73
2018-03-26T23:19:05.828Z,7.00
2018-03-26T23:21:34.303Z,8.75
2018-03-26T23:24:02.598Z,9.00
2018-03-26T23:26:31.161Z,9.45
2018-03-26T23:28:59.579Z,9.67
2018-03-26T23:31:27.918Z,8.30
2018-03-26T23:33:57.141Z,8.70
2018-03-26T23:36:25.535Z,9.32
2018-03-26T23:38:53.991Z,9.33
2018-03-26T23:41:23.732Z,8.90
2018-03-26T23:43:52.028Z,8.37
2018-03-26T23:46:21.141Z,9.37
2018-03-26T23:48:50.238Z,9.70
2018-03-26T23:51:19.364Z,8.07
2018-03-26T23:53:48.084Z,9.07
2018-03-26T23:56:16.366Z,10.70
2018-03-26T23:58:44.904Z,10.37
